Aérodrome :
LOGIN :

S'inscrire | Disclaimer

   EN    FR    IT 

 










Légende :    VFR   VFR Marginal   IFR   IFR Intensif   IFR Très Intensif
Visi : 
Plafond : 
>= 8 km
>= 3000ft
5 à 8 km
1000 à 3000 ft
1500m à 5 km
500 à 1000 ft
800 à 1500m
200 à 500 ft
< 800m
< 200 ft
Symboles :   Orages  Brouillard  Fortes neiges  Fortes précipitations  Vent > 20 kt
SIGMETs :   Divers  Orages  Givrage  Turbulence  Onde Orograph.  Cendres Volcan.






- Altitude de l'aérodrome : 56 ft


LPOV - Ovar Air Base

DERNIER METAR :
  • 141200Z 33012KT 310V010 6000 2400N -DZ BKN005 BKN013 16/16 Q1018

METARs EXPIRÉS :
  • 141100Z 23007KT 190V260 9000 -DZ BKN004 BKN013 18/17 Q1018
  • 141000Z 20005KT 160V240 9999 BKN007 BKN015 18/17 Q1018
  • 140900Z 18007KT 9999 BKN005 BKN015 BKN028 18/16 Q1017
  • 140800Z 16006KT 9999 BKN005 BKN015 BKN022 17/16 Q1017

TAF AMD TAF LPOV
Valide du 14 à 12h jusqu'au 15 à 12h UTC


141116Z 1412/1512 22006KT 1000 -DZ BR BKN002
BECMG 1412/1415 34012KT 9999 NSW FEW015 SCT025



MET'MAP, la Météo Aéronautique d'un coup d'oeil ! - Copyright ORBIFLY Décembre 2007 - Disclaimer

ORBIFLY MET'MAP TEAM :

Programmation & Développement : Alexandra Zaïnal
Sur une idée originale de : Baudouin d'Aumeries
Soutien technique & logistique : Manuel Goepfert
Assistance : Marc-Olivier Méhu




SOURCES & CREDITS :

   NOAA